Terminal Aerodrome Forecast
Issued by NWS Wakefield, VA

Home | Current Version | Previous Version | Text Only | Print | Product List | Glossary On
Versions: 1 2 3 4 5 6 7 8 9 10 11 12 13 14 15 16
000
FTUS41 KAKQ 250802 AAA
TAFORF
TAF AMD
KORF 250802Z 2508/2606 00000KT P6SM SKC
      TEMPO 2509/2511 3SM BR
     FM251300 23003KT P6SM SKC
     FM251600 23008KT P6SM SKC
     FM260400 28007KT P6SM BKN200=

USA.gov is the U.S. government's official web portal to all federal, state and local government web resources and services.